createdAt,value
2018-08-23T00:00:46.633Z,0.00
2018-08-23T00:01:46.607Z,0.00
2018-08-23T00:02:46.565Z,0.00
2018-08-23T00:03:46.560Z,0.00
2018-08-23T00:04:46.512Z,0.00
2018-08-23T00:05:46.460Z,0.00
2018-08-23T00:06:46.413Z,0.00
2018-08-23T00:07:46.379Z,0.00
2018-08-23T00:08:46.366Z,0.00
2018-08-23T00:09:46.303Z,0.00
2018-08-23T00:10:46.283Z,0.00
2018-08-23T00:11:46.241Z,0.00
2018-08-23T00:12:46.200Z,0.00
2018-08-23T00:13:46.165Z,0.00
2018-08-23T00:14:46.123Z,0.00
2018-08-23T00:15:46.101Z,0.00
2018-08-23T00:16:46.174Z,0.00
2018-08-23T00:17:46.011Z,0.00
2018-08-23T00:18:45.968Z,0.00
2018-08-23T00:19:45.943Z,0.00
2018-08-23T00:20:45.926Z,0.00
2018-08-23T00:21:56.145Z,0.00
2018-08-23T00:22:45.831Z,0.00
2018-08-23T00:23:45.789Z,0.00
2018-08-23T00:24:45.754Z,0.00
2018-08-23T00:25:45.709Z,0.00
2018-08-23T00:26:45.702Z,0.00
2018-08-23T00:27:45.642Z,0.00
2018-08-23T00:28:45.607Z,0.00
2018-08-23T00:29:45.572Z,0.00
2018-08-23T00:30:45.532Z,0.00
2018-08-23T00:31:45.500Z,0.00
2018-08-23T00:32:45.483Z,0.00
2018-08-23T00:33:45.422Z,0.00
2018-08-23T00:34:45.380Z,0.00
2018-08-23T00:35:45.349Z,0.00
2018-08-23T00:36:45.317Z,0.00
2018-08-23T00:37:55.205Z,0.00
2018-08-23T00:38:45.242Z,0.00
2018-08-23T00:39:45.206Z,0.00
2018-08-23T00:40:45.171Z,0.00
2018-08-23T00:41:45.134Z,0.00
2018-08-23T00:42:45.113Z,0.00
2018-08-23T00:43:45.045Z,0.00
2018-08-23T00:44:45.014Z,0.00
2018-08-23T00:45:44.984Z,0.00
2018-08-23T00:46:44.942Z,0.00
2018-08-23T00:47:44.910Z,0.00
2018-08-23T00:48:44.924Z,0.00
2018-08-23T00:49:44.832Z,0.00
2018-08-23T00:50:44.801Z,0.00
2018-08-23T00:51:44.754Z,0.00
2018-08-23T00:52:44.711Z,0.00
2018-08-23T00:53:44.712Z,0.00
2018-08-23T00:54:44.652Z,0.00
2018-08-23T00:55:44.607Z,0.00
2018-08-23T00:56:44.568Z,0.00
2018-08-23T00:57:44.529Z,0.00
2018-08-23T00:58:44.511Z,0.00
2018-08-23T00:59:44.495Z,0.00
2018-08-23T01:00:44.432Z,0.00
2018-08-23T01:01:44.392Z,0.00
2018-08-23T01:02:44.354Z,0.00
2018-08-23T01:03:44.378Z,0.00
2018-08-23T01:04:44.332Z,0.00
2018-08-23T01:05:44.271Z,0.00
2018-08-23T01:06:44.294Z,0.00
2018-08-23T01:07:44.215Z,0.00
2018-08-23T01:08:44.141Z,0.00
2018-08-23T01:09:44.090Z,0.00
2018-08-23T01:10:44.087Z,0.00
2018-08-23T01:11:44.026Z,0.00
2018-08-23T01:12:43.984Z,0.00
2018-08-23T01:13:53.236Z,0.00
2018-08-23T01:14:43.909Z,0.00
2018-08-23T01:15:43.885Z,0.00
2018-08-23T01:16:43.831Z,0.00
2018-08-23T01:17:43.806Z,0.00
2018-08-23T01:18:43.769Z,0.00
2018-08-23T01:19:43.721Z,0.00
2018-08-23T01:20:43.706Z,0.00
2018-08-23T01:21:43.646Z,0.00
2018-08-23T01:22:43.601Z,0.00
2018-08-23T01:23:43.578Z,0.00
2018-08-23T01:24:43.536Z,0.00
2018-08-23T01:25:43.520Z,0.00
2018-08-23T01:26:43.461Z,0.00
2018-08-23T01:27:43.424Z,0.00
2018-08-23T01:28:43.385Z,0.00
2018-08-23T01:29:43.356Z,0.00
2018-08-23T01:30:43.348Z,0.00
2018-08-23T01:31:43.283Z,0.00
2018-08-23T01:32:43.242Z,0.00
2018-08-23T01:33:43.198Z,0.00
2018-08-23T01:34:43.160Z,0.00
2018-08-23T01:35:43.123Z,0.00
2018-08-23T01:36:43.112Z,0.00
2018-08-23T01:37:43.052Z,0.00
2018-08-23T01:38:43.038Z,0.00
2018-08-23T01:39:42.975Z,0.00
2018-08-23T01:40:42.941Z,0.00
2018-08-23T01:41:42.929Z,0.00
2018-08-23T01:42:42.870Z,0.00
2018-08-23T01:43:42.831Z,0.00
2018-08-23T01:44:42.798Z,0.00
2018-08-23T01:45:42.755Z,0.00
2018-08-23T01:46:42.733Z,0.00
2018-08-23T01:47:42.679Z,0.00
2018-08-23T01:48:42.639Z,0.00
2018-08-23T01:49:42.608Z,0.00
2018-08-23T01:50:42.579Z,0.00
2018-08-23T01:51:51.300Z,0.00
2018-08-23T01:52:42.486Z,0.00
2018-08-23T01:53:42.468Z,0.00
2018-08-23T01:54:42.421Z,0.00
2018-08-23T01:55:42.388Z,0.00
2018-08-23T01:56:42.345Z,0.00
2018-08-23T01:57:42.326Z,0.00
2018-08-23T01:58:42.290Z,0.00
2018-08-23T01:59:42.236Z,0.00
2018-08-23T02:00:42.196Z,0.00
2018-08-23T02:01:42.158Z,0.00
2018-08-23T02:02:42.150Z,0.00
2018-08-23T02:03:42.077Z,0.00
2018-08-23T02:04:42.044Z,0.00
2018-08-23T02:05:42.005Z,0.00
2018-08-23T02:06:41.977Z,0.00
2018-08-23T02:07:41.960Z,0.00
2018-08-23T02:08:41.911Z,0.00
2018-08-23T02:09:41.855Z,0.00
2018-08-23T02:10:41.814Z,0.00
2018-08-23T02:11:41.787Z,0.00
2018-08-23T02:12:41.750Z,0.00
2018-08-23T02:13:41.734Z,0.00
2018-08-23T02:14:41.677Z,0.00
2018-08-23T02:15:41.629Z,0.00
2018-08-23T02:16:41.593Z,0.00
2018-08-23T02:17:41.555Z,0.00
2018-08-23T02:18:41.565Z,0.00
2018-08-23T02:19:41.493Z,0.00
2018-08-23T02:20:41.449Z,0.00
2018-08-23T02:21:41.414Z,0.00
2018-08-23T02:22:41.374Z,0.00
2018-08-23T02:23:41.352Z,0.00
2018-08-23T02:24:41.294Z,0.00
2018-08-23T02:25:41.267Z,0.00
2018-08-23T02:26:41.226Z,0.00
2018-08-23T02:27:41.183Z,0.00
2018-08-23T02:28:41.192Z,0.00
2018-08-23T02:29:41.106Z,0.00
2018-08-23T02:30:41.071Z,0.00
2018-08-23T02:31:41.038Z,0.00
2018-08-23T02:32:41.003Z,0.00
2018-08-23T02:33:40.999Z,0.00
2018-08-23T02:34:40.931Z,0.00
2018-08-23T02:35:40.882Z,0.00
2018-08-23T02:36:40.850Z,0.00
2018-08-23T02:37:40.812Z,0.00
2018-08-23T02:38:40.791Z,0.00
2018-08-23T02:39:40.778Z,0.00
2018-08-23T02:40:40.700Z,0.00
2018-08-23T02:41:40.655Z,0.00
2018-08-23T02:42:40.620Z,0.00
2018-08-23T02:43:40.594Z,0.00
2018-08-23T02:44:40.599Z,0.00
2018-08-23T02:45:40.514Z,0.00
2018-08-23T02:46:40.484Z,0.00
2018-08-23T02:47:40.442Z,0.00
2018-08-23T02:48:40.413Z,0.00
2018-08-23T02:49:40.357Z,0.00
2018-08-23T02:50:40.354Z,0.00
2018-08-23T02:51:40.289Z,0.00
2018-08-23T02:52:40.249Z,0.00
2018-08-23T02:53:40.216Z,0.00
2018-08-23T02:54:40.178Z,0.00
2018-08-23T02:55:40.155Z,0.00
2018-08-23T02:56:40.100Z,0.00
2018-08-23T02:57:40.067Z,0.00
2018-08-23T02:58:40.028Z,0.00
2018-08-23T02:59:39.980Z,0.00
2018-08-23T03:00:40.028Z,0.00
2018-08-23T03:01:39.928Z,0.00
2018-08-23T03:02:39.868Z,0.00
2018-08-23T03:03:39.841Z,0.00
2018-08-23T03:04:39.807Z,0.00
2018-08-23T03:05:39.763Z,0.00
2018-08-23T03:06:39.747Z,0.00
2018-08-23T03:07:49.839Z,0.00
2018-08-23T03:08:39.644Z,0.00
2018-08-23T03:09:39.614Z,0.00
2018-08-23T03:10:39.572Z,0.00
2018-08-23T03:11:39.558Z,0.00
2018-08-23T03:12:39.496Z,0.00
2018-08-23T03:13:39.463Z,0.00
2018-08-23T03:14:39.427Z,0.00
2018-08-23T03:15:39.387Z,0.00
2018-08-23T03:16:39.349Z,0.00
2018-08-23T03:17:39.326Z,0.00
2018-08-23T03:18:39.271Z,0.00
2018-08-23T03:19:39.234Z,0.00
2018-08-23T03:20:39.197Z,0.00
2018-08-23T03:21:39.161Z,0.00
2018-08-23T03:22:39.153Z,0.00
2018-08-23T03:23:39.086Z,0.00
2018-08-23T03:24:39.051Z,0.00
2018-08-23T03:25:39.002Z,0.00
2018-08-23T03:26:38.967Z,0.00
2018-08-23T03:27:38.936Z,0.00
2018-08-23T03:28:38.917Z,0.00
2018-08-23T03:29:38.859Z,0.00
2018-08-23T03:30:38.876Z,0.00
2018-08-23T03:31:38.776Z,0.00
2018-08-23T03:32:38.738Z,0.00
2018-08-23T03:33:38.732Z,0.00
2018-08-23T03:34:38.676Z,0.00
2018-08-23T03:35:38.635Z,0.00
2018-08-23T03:36:38.594Z,0.00
2018-08-23T03:37:38.552Z,0.00
2018-08-23T03:38:38.540Z,0.00
2018-08-23T03:39:38.476Z,0.00
2018-08-23T03:40:38.441Z,0.00
2018-08-23T03:41:38.408Z,0.00
2018-08-23T03:42:38.366Z,0.00
2018-08-23T03:43:38.356Z,0.00
2018-08-23T03:44:49.388Z,0.00
2018-08-23T03:45:38.261Z,0.00
2018-08-23T03:46:38.218Z,0.00
2018-08-23T03:47:38.176Z,0.00
2018-08-23T03:48:38.138Z,0.00
2018-08-23T03:49:38.118Z,0.00
2018-08-23T03:50:38.061Z,0.00
2018-08-23T03:51:38.036Z,0.00
2018-08-23T03:52:38.069Z,0.00
2018-08-23T03:53:37.954Z,0.00
2018-08-23T03:54:37.945Z,0.00
2018-08-23T03:55:37.875Z,0.00
2018-08-23T03:56:37.834Z,0.00
2018-08-23T03:57:37.801Z,0.00
2018-08-23T03:58:37.763Z,0.00
2018-08-23T03:59:37.722Z,0.00
2018-08-23T04:00:37.703Z,0.00
2018-08-23T04:01:37.643Z,0.00
2018-08-23T04:02:37.605Z,0.00
2018-08-23T04:03:37.580Z,0.00
2018-08-23T04:04:37.537Z,0.00
2018-08-23T04:05:37.528Z,0.00
2018-08-23T04:06:37.462Z,0.00
2018-08-23T04:07:37.418Z,0.00
2018-08-23T04:08:37.378Z,0.00
2018-08-23T04:09:37.346Z,0.00
2018-08-23T04:10:37.327Z,0.00
2018-08-23T04:11:37.276Z,0.00
2018-08-23T04:12:37.242Z,0.00
2018-08-23T04:13:37.192Z,0.00
2018-08-23T04:14:37.151Z,0.00
2018-08-23T04:15:37.145Z,0.00
2018-08-23T04:16:37.084Z,0.00
2018-08-23T04:17:37.050Z,0.00
2018-08-23T04:18:37.007Z,0.00
2018-08-23T04:19:36.963Z,0.00
2018-08-23T04:20:36.953Z,5.63
2018-08-23T04:21:36.889Z,5.63
2018-08-23T04:22:36.852Z,5.63
2018-08-23T04:23:46.924Z,5.63
2018-08-23T04:24:36.783Z,5.63
2018-08-23T04:25:36.736Z,5.63
2018-08-23T04:26:36.721Z,11.25
2018-08-23T04:27:36.669Z,11.25
2018-08-23T04:28:36.634Z,11.25
2018-08-23T04:29:36.587Z,11.25
2018-08-23T04:30:36.550Z,11.25
2018-08-23T04:31:36.533Z,16.88
2018-08-23T04:32:36.471Z,16.88
2018-08-23T04:33:36.440Z,16.88
2018-08-23T04:34:36.407Z,16.88
2018-08-23T04:35:36.363Z,22.50
2018-08-23T04:36:36.346Z,22.50
2018-08-23T04:37:36.281Z,22.50
2018-08-23T04:38:36.251Z,28.13
2018-08-23T04:39:36.214Z,28.13
2018-08-23T04:40:36.162Z,28.13
2018-08-23T04:41:36.157Z,33.75
2018-08-23T04:42:36.097Z,33.75
2018-08-23T04:43:45.467Z,33.75
2018-08-23T04:44:36.035Z,39.38
2018-08-23T04:45:35.986Z,39.38
2018-08-23T04:46:35.977Z,45.00
2018-08-23T04:47:35.903Z,45.00
2018-08-23T04:48:35.863Z,45.00
2018-08-23T04:49:35.825Z,50.63
2018-08-23T04:50:35.788Z,50.63
2018-08-23T04:51:35.789Z,56.25
2018-08-23T04:52:35.743Z,56.25
2018-08-23T04:53:35.679Z,61.88
2018-08-23T04:54:35.643Z,67.50
2018-08-23T04:55:35.600Z,67.50
2018-08-23T04:56:35.564Z,73.13
2018-08-23T04:57:35.551Z,78.75
2018-08-23T04:58:35.491Z,78.75
2018-08-23T04:59:35.448Z,84.38
2018-08-23T05:00:35.407Z,90.00
2018-08-23T05:01:45.503Z,95.63
2018-08-23T05:02:35.373Z,95.63
2018-08-23T05:03:35.303Z,101.25
2018-08-23T05:04:35.264Z,106.88
2018-08-23T05:05:35.217Z,112.50
2018-08-23T05:06:35.181Z,118.13
2018-08-23T05:07:35.166Z,118.13
2018-08-23T05:08:35.108Z,123.75
2018-08-23T05:09:35.082Z,129.38
2018-08-23T05:10:35.037Z,135.00
2018-08-23T05:11:34.991Z,140.63
2018-08-23T05:12:34.953Z,146.25
2018-08-23T05:13:34.953Z,151.88
2018-08-23T05:14:34.884Z,157.50
2018-08-23T05:15:34.847Z,163.13
2018-08-23T05:16:34.815Z,163.13
2018-08-23T05:17:34.773Z,168.75
2018-08-23T05:18:34.758Z,174.38
2018-08-23T05:19:34.720Z,180.00
2018-08-23T05:20:34.651Z,185.63
2018-08-23T05:21:34.620Z,191.25
2018-08-23T05:22:34.587Z,202.50
2018-08-23T05:23:34.573Z,202.50
2018-08-23T05:24:34.510Z,208.13
2018-08-23T05:25:34.462Z,213.75
2018-08-23T05:26:34.424Z,219.38
2018-08-23T05:27:34.399Z,225.00
2018-08-23T05:28:34.359Z,230.63
2018-08-23T05:29:34.334Z,236.25
2018-08-23T05:30:34.282Z,247.50
2018-08-23T05:31:34.240Z,247.50
2018-08-23T05:32:34.213Z,253.13
2018-08-23T05:33:34.170Z,264.38
2018-08-23T05:34:34.156Z,258.75
2018-08-23T05:35:34.102Z,264.38
2018-08-23T05:36:34.063Z,264.38
2018-08-23T05:37:34.022Z,270.00
2018-08-23T05:38:34.012Z,270.00
2018-08-23T05:39:33.951Z,281.25
2018-08-23T05:40:33.909Z,281.25
2018-08-23T05:41:43.039Z,292.50
2018-08-23T05:42:33.844Z,292.50
2018-08-23T05:43:33.817Z,303.75
2018-08-23T05:44:33.797Z,309.38
2018-08-23T05:45:33.735Z,320.63
2018-08-23T05:46:33.698Z,326.25
2018-08-23T05:47:33.686Z,331.88
2018-08-23T05:48:33.619Z,343.13
2018-08-23T05:49:33.606Z,360.00
2018-08-23T05:50:33.551Z,371.25
2018-08-23T05:51:33.517Z,376.88
2018-08-23T05:52:33.480Z,388.13
2018-08-23T05:53:33.448Z,393.75
2018-08-23T05:54:33.439Z,405.00
2018-08-23T05:55:33.373Z,421.88
2018-08-23T05:56:33.339Z,427.50
2018-08-23T05:57:33.309Z,438.75
2018-08-23T05:58:33.275Z,450.00
2018-08-23T05:59:33.231Z,461.25
2018-08-23T06:00:33.221Z,478.13
2018-08-23T06:01:33.159Z,478.13
2018-08-23T06:02:43.630Z,489.38
2018-08-23T06:03:33.104Z,495.00
2018-08-23T06:04:33.071Z,500.63
2018-08-23T06:05:33.052Z,500.63
2018-08-23T06:06:32.990Z,506.25
2018-08-23T06:07:32.958Z,511.88
2018-08-23T06:08:32.920Z,517.50
2018-08-23T06:09:32.889Z,534.38
2018-08-23T06:10:32.859Z,540.00
2018-08-23T06:11:32.837Z,545.63
2018-08-23T06:12:32.783Z,551.25
2018-08-23T06:13:32.755Z,562.50
2018-08-23T06:14:32.720Z,573.75
2018-08-23T06:15:32.693Z,585.00
2018-08-23T06:16:32.677Z,590.63
2018-08-23T06:17:32.618Z,590.63
2018-08-23T06:18:32.584Z,590.63
2018-08-23T06:19:43.617Z,596.25
2018-08-23T06:20:32.523Z,596.25
2018-08-23T06:21:32.507Z,607.50
2018-08-23T06:22:32.450Z,607.50
2018-08-23T06:23:32.413Z,613.13
2018-08-23T06:24:32.380Z,624.38
2018-08-23T06:25:32.354Z,630.00
2018-08-23T06:26:32.342Z,635.63
2018-08-23T06:27:32.322Z,641.25
2018-08-23T06:28:32.243Z,652.50
2018-08-23T06:29:32.213Z,669.38
2018-08-23T06:30:32.182Z,686.25
2018-08-23T06:31:32.157Z,697.50
2018-08-23T06:32:32.141Z,703.13
2018-08-23T06:33:32.321Z,714.38
2018-08-23T06:34:32.054Z,725.63
2018-08-23T06:35:32.024Z,742.50
2018-08-23T06:36:31.986Z,765.00
2018-08-23T06:37:31.986Z,770.63
2018-08-23T06:38:31.944Z,793.13
2018-08-23T06:39:31.892Z,810.00
2018-08-23T06:40:42.158Z,843.75
2018-08-23T06:41:31.848Z,866.25
2018-08-23T06:42:31.816Z,894.38
2018-08-23T06:43:31.763Z,967.50
2018-08-23T06:44:31.753Z,1040.63
2018-08-23T06:45:31.689Z,1271.25
2018-08-23T06:46:31.658Z,1406.25
2018-08-23T06:47:31.653Z,1490.63
2018-08-23T06:48:31.599Z,1648.13
2018-08-23T06:49:31.573Z,1569.38
2018-08-23T06:50:31.535Z,1434.38
2018-08-23T06:51:31.505Z,1338.75
2018-08-23T06:52:31.474Z,1316.25
2018-08-23T06:53:31.455Z,1248.75
2018-08-23T06:54:31.398Z,1276.88
2018-08-23T06:55:31.375Z,1496.25
2018-08-23T06:56:31.349Z,1603.13
2018-08-23T06:57:31.304Z,1406.25
2018-08-23T06:58:31.296Z,1479.38
2018-08-23T06:59:41.701Z,1687.50
2018-08-23T07:00:31.220Z,1552.50
2018-08-23T07:01:31.186Z,1620.00
2018-08-23T07:02:31.151Z,1676.25
2018-08-23T07:03:31.140Z,1468.13
2018-08-23T07:04:31.084Z,1732.50
2018-08-23T07:05:31.122Z,1794.38
2018-08-23T07:06:31.021Z,1591.88
2018-08-23T07:07:31.000Z,1878.75
2018-08-23T07:08:30.961Z,2216.25
2018-08-23T07:09:30.951Z,1811.25
2018-08-23T07:10:30.967Z,1648.13
2018-08-23T07:11:30.874Z,1715.63
2018-08-23T07:12:30.842Z,1710.00
2018-08-23T07:13:30.809Z,1788.75
2018-08-23T07:14:30.797Z,1726.88
2018-08-23T07:15:30.741Z,1575.00
2018-08-23T07:16:30.707Z,1524.38
2018-08-23T07:17:30.725Z,1608.75
2018-08-23T07:18:40.751Z,1524.38
2018-08-23T07:19:30.650Z,1428.75
2018-08-23T07:20:30.591Z,1406.25
2018-08-23T07:21:30.555Z,1451.25
2018-08-23T07:22:30.553Z,1518.75
2018-08-23T07:23:30.506Z,1496.25
2018-08-23T07:24:30.471Z,1411.88
2018-08-23T07:25:30.453Z,1327.50
2018-08-23T07:26:30.408Z,1265.63
2018-08-23T07:27:30.371Z,1237.50
2018-08-23T07:28:30.340Z,1226.25
2018-08-23T07:29:30.318Z,1220.63
2018-08-23T07:30:30.310Z,1198.13
2018-08-23T07:31:30.306Z,1186.88
2018-08-23T07:32:30.229Z,1181.25
2018-08-23T07:33:30.187Z,1186.88
2018-08-23T07:34:30.155Z,1170.00
2018-08-23T07:35:30.149Z,1158.75
2018-08-23T07:36:30.094Z,1147.50
2018-08-23T07:37:30.085Z,1153.13
2018-08-23T07:38:30.042Z,1175.63
2018-08-23T07:39:30.004Z,1181.25
2018-08-23T07:40:29.993Z,1186.88
2018-08-23T07:41:29.949Z,1175.63
2018-08-23T07:42:29.920Z,1192.50
2018-08-23T07:43:29.889Z,1186.88
2018-08-23T07:44:29.858Z,1186.88
2018-08-23T07:45:29.845Z,1203.75
2018-08-23T07:46:29.790Z,1209.38
2018-08-23T07:47:29.767Z,1220.63
2018-08-23T07:48:29.762Z,1231.88
2018-08-23T07:49:29.707Z,1231.88
2018-08-23T07:50:29.682Z,1231.88
2018-08-23T07:51:29.672Z,1237.50
2018-08-23T07:52:29.652Z,1243.13
2018-08-23T07:53:29.723Z,1220.63
2018-08-23T07:54:29.552Z,1271.25
2018-08-23T07:55:29.556Z,1271.25
2018-08-23T07:56:29.506Z,1260.00
2018-08-23T07:57:29.460Z,1265.63
2018-08-23T07:58:29.433Z,1248.75
2018-08-23T07:59:29.400Z,1293.75
2018-08-23T08:00:29.394Z,1254.38
2018-08-23T08:01:29.346Z,1282.50
2018-08-23T08:02:29.315Z,1276.88
2018-08-23T08:03:29.280Z,1276.88
2018-08-23T08:04:29.249Z,1338.75
2018-08-23T08:05:29.251Z,1299.38
2018-08-23T08:06:29.197Z,1282.50
2018-08-23T08:07:29.169Z,1355.63
2018-08-23T08:08:29.138Z,1338.75
2018-08-23T08:09:29.102Z,1338.75
2018-08-23T08:10:29.090Z,1361.25
2018-08-23T08:11:29.052Z,1366.88
2018-08-23T08:12:29.017Z,1378.13
2018-08-23T08:13:28.985Z,1395.00
2018-08-23T08:14:28.949Z,1383.75
2018-08-23T08:15:28.947Z,1378.13
2018-08-23T08:16:28.890Z,1389.38
2018-08-23T08:17:39.304Z,1372.50
2018-08-23T08:18:28.839Z,1395.00
2018-08-23T08:19:28.803Z,1406.25
2018-08-23T08:20:28.805Z,1344.38
2018-08-23T08:21:28.750Z,1361.25
2018-08-23T08:22:28.717Z,1383.75
2018-08-23T08:23:28.687Z,1400.63
2018-08-23T08:24:28.669Z,1389.38
2018-08-23T08:25:28.624Z,1243.13
2018-08-23T08:26:28.645Z,1395.00
2018-08-23T08:27:28.572Z,1378.13
2018-08-23T08:28:28.544Z,1288.13
2018-08-23T08:29:28.520Z,1406.25
2018-08-23T08:30:28.488Z,1456.88
2018-08-23T08:31:28.474Z,1496.25
2018-08-23T08:32:28.419Z,1496.25
2018-08-23T08:33:28.392Z,1479.38
2018-08-23T08:34:28.364Z,1507.50
2018-08-23T08:35:28.342Z,1563.75
2018-08-23T08:36:28.332Z,1496.25
2018-08-23T08:37:28.283Z,1479.38
2018-08-23T08:38:28.252Z,1614.38
2018-08-23T08:39:28.222Z,1603.13
2018-08-23T08:40:28.189Z,1580.63
2018-08-23T08:41:28.190Z,1575.00
2018-08-23T08:42:28.137Z,1738.13
2018-08-23T08:43:28.104Z,1783.13
2018-08-23T08:44:28.073Z,2109.38
2018-08-23T08:45:28.045Z,2621.25
2018-08-23T08:46:28.042Z,2722.50
2018-08-23T08:47:27.998Z,2885.63
2018-08-23T08:48:27.964Z,2520.00
2018-08-23T08:49:27.965Z,2283.75
2018-08-23T08:50:27.986Z,2778.75
2018-08-23T08:51:27.871Z,3105.00
2018-08-23T08:52:27.871Z,3082.50
2018-08-23T08:53:27.816Z,3110.63
2018-08-23T08:54:27.789Z,3346.88
2018-08-23T08:55:36.864Z,3262.50
2018-08-23T08:56:27.737Z,3195.00
2018-08-23T08:57:27.739Z,3015.00
2018-08-23T08:58:27.682Z,3217.50
2018-08-23T08:59:27.657Z,3043.13
2018-08-23T09:00:27.628Z,1906.88
2018-08-23T09:01:27.590Z,2891.25
2018-08-23T09:02:27.567Z,2885.63
2018-08-23T09:03:27.559Z,3408.75
2018-08-23T09:04:27.507Z,3189.38
2018-08-23T09:05:27.488Z,2773.13
2018-08-23T09:06:27.459Z,770.63
2018-08-23T09:07:27.434Z,849.38
2018-08-23T09:08:27.434Z,1141.88
2018-08-23T09:09:27.374Z,2790.00
2018-08-23T09:10:27.343Z,1130.63
2018-08-23T09:11:27.329Z,2795.63
2018-08-23T09:12:27.295Z,1288.13
2018-08-23T09:13:27.261Z,3099.38
2018-08-23T09:14:27.253Z,3318.75
2018-08-23T09:15:27.203Z,3577.50
2018-08-23T09:16:27.181Z,3532.50
2018-08-23T09:17:27.153Z,3701.25
2018-08-23T09:18:27.129Z,3870.00
2018-08-23T09:19:27.116Z,3791.25
2018-08-23T09:20:27.071Z,3785.63
2018-08-23T09:21:27.034Z,3937.50
2018-08-23T09:22:27.007Z,3690.00
2018-08-23T09:23:26.976Z,3515.63
2018-08-23T09:24:26.974Z,3487.50
2018-08-23T09:25:26.937Z,3937.50
2018-08-23T09:26:26.901Z,3690.00
2018-08-23T09:27:26.867Z,3684.38
2018-08-23T09:28:26.840Z,3915.00
2018-08-23T09:29:26.843Z,3988.13
2018-08-23T09:30:26.795Z,3751.88
2018-08-23T09:31:26.766Z,3504.38
2018-08-23T09:32:26.738Z,3493.13
2018-08-23T09:33:26.707Z,3375.00
2018-08-23T09:34:26.686Z,3616.88
2018-08-23T09:35:33.729Z,1642.50
2018-08-23T09:36:26.640Z,3076.88
2018-08-23T09:37:26.607Z,3673.13
2018-08-23T09:38:26.593Z,3706.88
2018-08-23T09:39:26.549Z,3740.63
2018-08-23T09:40:26.544Z,3690.00
2018-08-23T09:41:26.507Z,3622.50
2018-08-23T09:42:26.482Z,1198.13
2018-08-23T09:43:26.444Z,1158.75
2018-08-23T09:44:26.422Z,1085.63
2018-08-23T09:45:26.413Z,1068.75
2018-08-23T09:46:26.364Z,3228.75
2018-08-23T09:47:26.417Z,1260.00
2018-08-23T09:48:26.318Z,1102.50
2018-08-23T09:49:26.326Z,1305.00
2018-08-23T09:50:26.308Z,3656.25
2018-08-23T09:51:26.244Z,1192.50
2018-08-23T09:52:26.298Z,1411.88
2018-08-23T09:53:26.174Z,3673.13
2018-08-23T09:54:26.161Z,3735.00
2018-08-23T09:55:26.128Z,3549.38
2018-08-23T09:56:35.993Z,3701.25
2018-08-23T09:57:26.073Z,3650.63
2018-08-23T09:58:26.041Z,1276.88
2018-08-23T09:59:26.019Z,1738.13
2018-08-23T10:00:25.984Z,3448.13
2018-08-23T10:01:25.977Z,1271.25
2018-08-23T10:02:25.946Z,3746.25
2018-08-23T10:03:25.899Z,3836.25
2018-08-23T10:04:26.047Z,4010.63
2018-08-23T10:05:25.851Z,3988.13
2018-08-23T10:06:25.848Z,4061.25
2018-08-23T10:07:25.792Z,3993.75
2018-08-23T10:08:25.767Z,4010.63
2018-08-23T10:09:25.731Z,3650.63
2018-08-23T10:10:25.709Z,1147.50
2018-08-23T10:11:25.821Z,3678.75
2018-08-23T10:12:25.653Z,4145.63
2018-08-23T10:13:25.621Z,4083.75
2018-08-23T10:14:25.596Z,3881.25
2018-08-23T10:15:25.564Z,4078.13
2018-08-23T10:16:35.515Z,4072.50
2018-08-23T10:17:25.518Z,3763.13
2018-08-23T10:18:25.496Z,3735.00
2018-08-23T10:19:25.465Z,3414.38
2018-08-23T10:20:25.432Z,3825.00
2018-08-23T10:21:25.405Z,3796.88
2018-08-23T10:22:25.407Z,3751.88
2018-08-23T10:23:25.357Z,3999.38
2018-08-23T10:24:25.335Z,3847.50
2018-08-23T10:25:25.303Z,3853.13
2018-08-23T10:26:25.301Z,3791.25
2018-08-23T10:27:25.276Z,3757.50
2018-08-23T10:28:25.273Z,3763.13
2018-08-23T10:29:25.206Z,3898.13
2018-08-23T10:30:25.183Z,3836.25
2018-08-23T10:31:25.147Z,3768.75
2018-08-23T10:32:25.220Z,3813.75
2018-08-23T10:33:25.098Z,3735.00
2018-08-23T10:34:25.070Z,3780.00
2018-08-23T10:35:25.052Z,4140.00
2018-08-23T10:36:33.549Z,4050.00
2018-08-23T10:37:25.018Z,3436.88
2018-08-23T10:38:24.974Z,3600.00
2018-08-23T10:39:24.954Z,3903.75
2018-08-23T10:40:24.924Z,1518.75
2018-08-23T10:41:24.895Z,2851.88
2018-08-23T10:42:24.892Z,1389.38
2018-08-23T10:43:24.845Z,3656.25
2018-08-23T10:44:24.830Z,3487.50
2018-08-23T10:45:24.804Z,2733.75
2018-08-23T10:46:24.780Z,1175.63
2018-08-23T10:47:24.772Z,1344.38
2018-08-23T10:48:24.729Z,3954.38
2018-08-23T10:49:24.697Z,1794.38
2018-08-23T10:50:24.668Z,1096.88
2018-08-23T10:51:24.640Z,3819.38
2018-08-23T10:52:24.634Z,3144.38
2018-08-23T10:53:24.598Z,1333.13
2018-08-23T10:54:24.579Z,3746.25
2018-08-23T10:55:24.535Z,3735.00
2018-08-23T10:56:24.509Z,3735.00
2018-08-23T10:57:24.513Z,3746.25
2018-08-23T10:58:24.460Z,3830.63
2018-08-23T10:59:24.437Z,3746.25
2018-08-23T11:00:24.412Z,1091.25
2018-08-23T11:01:24.373Z,1051.88
2018-08-23T11:02:24.372Z,3656.25
2018-08-23T11:03:24.321Z,3853.13
2018-08-23T11:04:24.292Z,3751.88
2018-08-23T11:05:24.273Z,3628.13
2018-08-23T11:06:24.246Z,2446.88
2018-08-23T11:07:24.223Z,3796.88
2018-08-23T11:08:24.216Z,3661.88
2018-08-23T11:09:24.166Z,3712.50
2018-08-23T11:10:24.133Z,3740.63
2018-08-23T11:11:24.114Z,3763.13
2018-08-23T11:12:24.089Z,3712.50
2018-08-23T11:13:24.077Z,3796.88
2018-08-23T11:14:24.027Z,3853.13
2018-08-23T11:15:24.003Z,3881.25
2018-08-23T11:16:23.978Z,3870.00
2018-08-23T11:17:23.955Z,3796.88
2018-08-23T11:18:23.959Z,3420.00
2018-08-23T11:19:23.940Z,1074.38
2018-08-23T11:20:23.877Z,3408.75
2018-08-23T11:21:23.871Z,3616.88
2018-08-23T11:22:23.823Z,3622.50
2018-08-23T11:23:23.828Z,3661.88
2018-08-23T11:24:23.770Z,3915.00
2018-08-23T11:25:23.752Z,3988.13
2018-08-23T11:26:23.727Z,3920.63
2018-08-23T11:27:23.692Z,3667.50
2018-08-23T11:28:23.667Z,3667.50
2018-08-23T11:29:23.692Z,1170.00
2018-08-23T11:30:23.623Z,1068.75
2018-08-23T11:31:23.595Z,1423.13
2018-08-23T11:32:23.572Z,3448.13
2018-08-23T11:33:23.537Z,3493.13
2018-08-23T11:34:23.541Z,3690.00
2018-08-23T11:35:23.487Z,3735.00
2018-08-23T11:36:23.496Z,3656.25
2018-08-23T11:37:23.441Z,1130.63
2018-08-23T11:38:23.416Z,3307.50
2018-08-23T11:39:23.421Z,3476.25
2018-08-23T11:40:23.365Z,3431.25
2018-08-23T11:41:23.327Z,3504.38
2018-08-23T11:42:23.303Z,3470.63
2018-08-23T11:43:23.291Z,3403.13
2018-08-23T11:44:23.259Z,3273.75
2018-08-23T11:45:23.259Z,3206.25
2018-08-23T11:46:23.197Z,3268.13
2018-08-23T11:47:23.171Z,3358.13
2018-08-23T11:48:23.147Z,2295.00
2018-08-23T11:49:23.127Z,3864.38
2018-08-23T11:50:23.120Z,4466.25
2018-08-23T11:51:23.071Z,4438.13
2018-08-23T11:52:23.045Z,4207.50
2018-08-23T11:53:23.252Z,1681.88
2018-08-23T11:54:22.986Z,922.50
2018-08-23T11:55:22.984Z,1811.25
2018-08-23T11:56:33.116Z,3487.50
2018-08-23T11:57:22.913Z,3571.88
2018-08-23T11:58:22.925Z,3549.38
2018-08-23T11:59:22.861Z,3532.50
2018-08-23T12:00:22.837Z,3543.75
2018-08-23T12:01:22.833Z,3358.13
2018-08-23T12:02:22.782Z,3245.63
2018-08-23T12:03:22.747Z,3307.50
2018-08-23T12:04:22.723Z,3318.75
2018-08-23T12:05:22.701Z,3307.50
2018-08-23T12:06:22.712Z,3071.25
2018-08-23T12:07:22.647Z,2964.38
2018-08-23T12:08:22.626Z,2936.25
2018-08-23T12:09:22.593Z,3127.50
2018-08-23T12:10:22.564Z,3071.25
2018-08-23T12:11:22.570Z,3088.13
2018-08-23T12:12:22.509Z,3228.75
2018-08-23T12:13:22.490Z,3228.75
2018-08-23T12:14:22.460Z,3256.88
2018-08-23T12:15:22.460Z,2930.63
2018-08-23T12:16:22.404Z,1676.25
2018-08-23T12:17:32.172Z,1603.13
2018-08-23T12:18:22.352Z,3301.88
2018-08-23T12:19:22.328Z,3324.38
2018-08-23T12:20:22.298Z,1237.50
2018-08-23T12:21:22.269Z,3358.13
2018-08-23T12:22:22.267Z,995.63
2018-08-23T12:23:22.209Z,3172.50
2018-08-23T12:24:22.179Z,3245.63
2018-08-23T12:25:22.163Z,3076.88
2018-08-23T12:26:22.151Z,1023.75
2018-08-23T12:27:22.124Z,832.50
2018-08-23T12:28:22.068Z,1378.13
2018-08-23T12:29:22.050Z,1276.88
2018-08-23T12:30:22.022Z,1113.75
2018-08-23T12:31:21.994Z,973.13
2018-08-23T12:32:21.973Z,3031.88
2018-08-23T12:33:21.948Z,1198.13
2018-08-23T12:34:21.899Z,2626.88
2018-08-23T12:35:21.869Z,984.38